Central Oregon RPC :: CARSON CITY, NV B

liberation: 2020-06-28  05:45     latitude: 39.170200     longitude: -119.749300 95 birds
# LOFT PRING MILES ARRIVAL SPEED ToWin
1 ROCKY TOP AU19-CORP-4464 356.881 2020-06-28 14:22:22.117 1214.049 00:00:00
2 ROCKY TOP AU19-CORP-4442 356.881 2020-06-28 14:22:24.835 1213.943 00:00:03
3 ROCKY TOP AU19-CORP-4443 356.881 2020-06-28 15:04:48.674 1122.005 00:42:27
4 RUETER FAMILY LOFT AU19-CORP-5477 390.961 2020-06-28 15:59:18.394 1120.111 00:47:32
5 HENDRICKSON FAMILY LOFT AU19-ARPU-29019 361.096 2020-06-28 15:13:11.883 1118.498 00:44:43
6 ROCKY TOP AU19-CORP-4405 356.881 2020-06-28 15:16:53.153 1098.315 00:54:31
7 ROCKY TOP AU19-CORP-4477 356.881 2020-06-28 15:32:16.369 1069.539 01:09:54
8 ROCKY TOP AU18-CORP-3313 356.881 2020-06-28 15:37:34.023 1059.983 01:15:12
9 ROCKY TOP AU18-CORP-3353 356.881 2020-06-28 15:37:38.207 1059.858 01:15:16
10 ROCKY TOP AU19-CORP-4435 356.881 2020-06-28 15:37:46.123 1059.623 01:15:24
11 RUETER FAMILY LOFT AU19-CORP-5310 390.961 2020-06-28 16:56:23.345 1024.878 01:44:37
12 ROCKY TOP AU18-CORP-3371 356.881 2020-06-28 16:09:43.361 1005.424 01:47:21
13 ROCKY TOP AU19-CORP-4473 356.881 2020-06-28 16:10:54.695 1003.514 01:48:33
14 TOPIGEONUSA AU19-CORP-4938 363.63 2020-06-28 16:23:10.937 1002.832 01:51:02
15 RUETER FAMILY LOFT AU18-CORP-2744 390.961 2020-06-28 17:43:05.867 958.214 02:31:19
16 RUETER FAMILY LOFT AU17-CORP-0498 390.961 2020-06-28 17:43:27.758 957.728 02:31:41
17 RUETER FAMILY LOFT AU19-CORP-5358 390.961 2020-06-28 17:43:30.330 957.671 02:31:44
18 ROCKY TOP AU18-CORP-3354 356.881 2020-06-28 16:47:55.660 947.481 02:25:34
19 AMERICAN LOFT AU19-CORP-4746 361.017 2020-06-28 17:01:49.407 938.782 02:33:28
20 STEELE LOFT AU19-JEDD-1973 363.861 2020-06-28 17:09:09.884 936.026 02:36:41
21 RUETER FAMILY LOFT AU19-CORP-5330 390.961 2020-06-28 18:02:25.612 933.098 02:50:39
22 ROCKY TOP AU18-CORP-3300 356.881 2020-06-28 17:41:02.954 877.190 03:18:41
23 RUETER FAMILY LOFT AU19-CORP-5408 390.961 2020-06-28 20:14:54.751 790.990 05:03:08
24 ROCKY TOP AU19-CORP-4474 356.881 2020-06-28 19:28:22.834 762.844 05:06:01
25 AMERICAN LOFT AU19-CORP-4605 361.017 2020-06-28 19:41:57.610 759.163 05:13:36
26 RUETER FAMILY LOFT AU19-CORP-5455 390.961 2020-06-28 20:56:58.680 754.505 05:45:12
27 ROCKY TOP AU16-CORP-7701 356.881 2020-06-28 20:11:29.092 724.896 05:49:07
28 RUETER FAMILY LOFT AU19-CORP-5250 390.961 2020-06-29 05:48:11.873 719.311 06:29:49
29 RUETER FAMILY LOFT AU19-CORP-5456 390.961 2020-06-29 05:55:33.540 713.818 06:37:11
30 ROCKY TOP AU18-CORP-3349 356.881 2020-06-29 06:06:32.845 644.251 07:37:35
31 RUETER FAMILY LOFT AU19-CORP-5344 390.961 2020-06-29 07:54:57.874 635.143 08:36:35
32 ROCKY TOP AU18-CORP-3351 356.881 2020-06-29 06:26:59.078 631.023 07:58:01
33 RUETER FAMILY LOFT AU19-CORP-5447 390.961 2020-06-29 09:22:05.244 587.868 10:03:43
34 ROCKY TOP AU18-CORP-3310 356.881 2020-06-29 07:50:15.329 582.309 09:21:17
35 RUETER FAMILY LOFT AU19-CORP-5413 390.961 2020-06-29 09:34:23.839 581.749 10:16:01
36 AMERICAN LOFT AU19-CORP-4635 361.017 2020-06-29 08:22:45.130 571.829 09:47:47
37 AMERICAN LOFT AU19-CORP-4690 361.017 2020-06-29 08:22:49.493 571.792 09:47:52
38 RUETER FAMILY LOFT AU19-CORP-5331 390.961 2020-06-29 09:57:13.786 570.732 10:38:51
39 TOPIGEONUSA AU19-CORP-4912 363.63 2020-06-29 08:45:12.566 564.559 10:06:27
40 ROCKY TOP AU19-CORP-4400 356.881 2020-06-29 08:45:45.085 553.816 10:16:47
41 ROCKY TOP AU18-CORP-3343 356.881 2020-06-29 08:57:31.238 548.128 10:28:33
42 STEELE LOFT AU14-CORP-1062 363.861 2020-06-29 09:45:52.732 536.220 11:06:47
43 RUETER FAMILY LOFT AU19-CORP-5438 390.961 2020-06-29 11:42:36.204 524.859 12:24:14
44 STEELE LOFT AU16-MTH-11012 363.861 2020-06-29 10:19:44.556 521.435 11:40:39
45 ROCKY TOP AU19-CORP-4454 356.881 2020-06-29 10:01:23.624 519.189 11:32:25
46 RUETER FAMILY LOFT AU19-CORP-5367 390.961 2020-06-29 12:08:51.514 514.554 12:50:29
47 TIM GRAVES AU17-SWWR-7335 355.554 2020-06-29 10:16:06.560 511.041 11:49:04
48 TIM GRAVES AU14-TAR-0426 355.554 2020-06-29 11:07:05.923 490.612 12:40:03
49 AMERICAN LOFT AU19-CORP-4699 361.017 2020-06-29 11:47:59.180 482.677 13:13:01
50 STEELE LOFT AU15-CORP-3873 363.861 2020-06-29 12:30:57.061 471.104 13:51:52
51 HENDRICKSON FAMILY LOFT AU18-CORP-4007 361.096 2020-06-29 12:23:09.095 470.221 13:48:04
52 AMERICAN LOFT AU19-CORP-4681 361.017 2020-06-29 13:18:56.588 451.482 14:43:59
53 AMERICAN LOFT AU19-CORP-4652 361.017 2020-06-29 13:18:57.954 451.474 14:44:00
54 TIM GRAVES AU17-FHI-1014 355.554 2020-06-29 13:11:09.991 447.120 14:44:07
55 AMERICAN LOFT AU19-CORP-4726 361.017 2020-06-29 14:34:29.451 428.480 15:59:32
56 AMERICAN LOFT AU19-CORP-4751 361.017 2020-06-29 16:05:04.665 403.812 17:30:07
57 AMERICAN LOFT AU19-CORP-4673 361.017 2020-06-29 17:38:00.372 381.293 19:03:03
AMERICAN LOFT AU19-CORP-4622 0 0000-00-00 00:00:00.000 0.000 00:00:00
AMERICAN LOFT AU19-CORP-4647 0 0000-00-00 00:00:00.000 0.000 00:00:00
AMERICAN LOFT AU19-CORP-4706 0 0000-00-00 00:00:00.000 0.000 00:00:00
AMERICAN LOFT AU19-CORP-4713 0 0000-00-00 00:00:00.000 0.000 00:00:00
AMERICAN LOFT AU19-CORP-4714 0 0000-00-00 00:00:00.000 0.000 00:00:00
AMERICAN LOFT AU19-CORP-4735 0 0000-00-00 00:00:00.000 0.000 00:00:00
AMERICAN LOFT AU19-CORP-4741 0 0000-00-00 00:00:00.000 0.000 00:00:00
AMERICAN LOFT AU19-CORP-4769 0 0000-00-00 00:00:00.000 0.000 00:00:00
HENDRICKSON FAMILY LOFT AU18-CORP-4028 0 0000-00-00 00:00:00.000 0.000 00:00:00
HENDRICKSON FAMILY LOFT AU18-CORP-4034 0 0000-00-00 00:00:00.000 0.000 00:00:00
HENDRICKSON FAMILY LOFT AU18-CORP-4046 0 0000-00-00 00:00:00.000 0.000 00:00:00
HENDRICKSON FAMILY LOFT AU19-ARPU-29020 0 0000-00-00 00:00:00.000 0.000 00:00:00
HENDRICKSON FAMILY LOFT AU19-ARPU-29030 0 0000-00-00 00:00:00.000 0.000 00:00:00
HENDRICKSON FAMILY LOFT AU19-CORP-4364 0 0000-00-00 00:00:00.000 0.000 00:00:00
ROCKY TOP AU19-CORP-4490 0 0000-00-00 00:00:00.000 0.000 00:00:00
RUETER FAMILY LOFT AU18-CORP-2635 0 0000-00-00 00:00:00.000 0.000 00:00:00
RUETER FAMILY LOFT AU19-CORP-5258 0 0000-00-00 00:00:00.000 0.000 00:00:00
RUETER FAMILY LOFT AU19-CORP-5293 0 0000-00-00 00:00:00.000 0.000 00:00:00
RUETER FAMILY LOFT AU19-CORP-5295 0 0000-00-00 00:00:00.000 0.000 00:00:00
RUETER FAMILY LOFT AU19-CORP-5296 0 0000-00-00 00:00:00.000 0.000 00:00:00
RUETER FAMILY LOFT AU19-CORP-5335 0 0000-00-00 00:00:00.000 0.000 00:00:00
RUETER FAMILY LOFT AU19-CORP-5339 0 0000-00-00 00:00:00.000 0.000 00:00:00
RUETER FAMILY LOFT AU19-CORP-5351 0 0000-00-00 00:00:00.000 0.000 00:00:00
RUETER FAMILY LOFT AU19-CORP-5376 0 0000-00-00 00:00:00.000 0.000 00:00:00
RUETER FAMILY LOFT AU19-CORP-5405 0 0000-00-00 00:00:00.000 0.000 00:00:00
RUETER FAMILY LOFT AU19-CORP-5425 0 0000-00-00 00:00:00.000 0.000 00:00:00
RUETER FAMILY LOFT AU19-CORP-5432 0 0000-00-00 00:00:00.000 0.000 00:00:00
RUETER FAMILY LOFT AU19-CORP-5435 0 0000-00-00 00:00:00.000 0.000 00:00:00
RUETER FAMILY LOFT AU19-CORP-5453 0 0000-00-00 00:00:00.000 0.000 00:00:00
RUETER FAMILY LOFT AU19-CORP-5463 0 0000-00-00 00:00:00.000 0.000 00:00:00
TIM GRAVES AU15-AA-14507 0 0000-00-00 00:00:00.000 0.000 00:00:00
TIM GRAVES AU17-CORP-0812 0 0000-00-00 00:00:00.000 0.000 00:00:00
TIM GRAVES AU17-CORP-0883 0 0000-00-00 00:00:00.000 0.000 00:00:00
TIM GRAVES AU17-CORP-2034 0 0000-00-00 00:00:00.000 0.000 00:00:00
TIM GRAVES AU17-FHI-0202 0 0000-00-00 00:00:00.000 0.000 00:00:00
TIM GRAVES AU19-CORP-4220 0 0000-00-00 00:00:00.000 0.000 00:00:00
TOPIGEONUSA AU18-CORP-4253 0 0000-00-00 00:00:00.000 0.000 00:00:00
TOPIGEONUSA AU19-CORP-4956 0 0000-00-00 00:00:00.000 0.000 00:00:00